COFK1: Verdigris River, Coffeyville Ks

Data processed at Wed May 22 2019 23:50


All information presented herein is the property of the government of the United States of America and may be revised or deleted at any time without prior notice.
Dissemination of this information without the expressed written consent of the Public Affairs Office, Tulsa District U.S. Army Corps of Engineers is strictly prohibited.
These data are gathered electronically and, as presented, have not undergone any form of quality control. These data are not guaranteed to be valid or correct.
Go to home page.
Go to station list.
Go to home page.

Upstream stations:

Downstream station:
Previous Day
Next Day
Current Day
    
SHEF ID:       COFK1     VERDIGRIS R AT COFFEYVILLE, KS
STATION TYPE:  
Regulating: Stage =    28.00, Flow =    31443

                STAGE  RIV-FLOW  BAT-LOAD
                   ft       cfs      volt
              Ccp-Rev   Ccp-Rev   Ccp-Rev
(US/Central)
05/22 00:00     33.62     48590     12.77
05/22 01:00     33.60     48401     12.77
05/22 02:00     33.63     48685     12.71
05/22 03:00     33.60     48401     12.71
05/22 04:00     33.53     47743     12.71
05/22 05:00     33.54     47837     12.65
05/22 06:00     33.45     47001     12.65
05/22 07:00     33.43     46817     12.65
05/22 08:00     33.35     46086     13.18
05/22 09:00     33.27     45365     13.12
05/22 10:00     33.28     45454     13.36
05/22 11:00     33.16     44388     13.30
05/22 12:00     33.15     44300     13.30
05/22 13:00     33.04     43343     13.42
05/22 14:00     32.95     42572     13.42
05/22 15:00     33.03     43257     13.48
05/22 16:00     32.96     42657     13.48
05/22 17:00     32.93     42402     13.48
05/22 18:00     32.87     41864     13.30
05/22 19:00     32.88     41953     13.24
05/22 20:00     32.77     40979     12.83
05/22 21:00     32.85     41686     12.77
05/22 22:00     32.89     42043     12.77
05/22 23:00     32.93     42402     12.71